sensor_id;sensor_type;location;lat;lon;timestamp;temperature;humidity
11748;DHT22;5931;48.832;9.072;2023-04-25T00:01:02;7.60;99.90
11748;DHT22;5931;48.832;9.072;2023-04-25T00:03:27;7.60;99.90
11748;DHT22;5931;48.832;9.072;2023-04-25T00:05:54;7.60;99.90
11748;DHT22;5931;48.832;9.072;2023-04-25T00:08:22;7.60;99.90
11748;DHT22;5931;48.832;9.072;2023-04-25T00:10:48;7.60;99.90
11748;DHT22;5931;48.832;9.072;2023-04-25T00:13:14;7.70;99.90
11748;DHT22;5931;48.832;9.072;2023-04-25T00:15:40;7.70;99.90
11748;DHT22;5931;48.832;9.072;2023-04-25T00:18:07;7.70;99.90
11748;DHT22;5931;48.832;9.072;2023-04-25T00:20:33;7.70;99.90
11748;DHT22;5931;48.832;9.072;2023-04-25T00:22:58;7.60;99.90
11748;DHT22;5931;48.832;9.072;2023-04-25T00:25:24;7.70;99.90
11748;DHT22;5931;48.832;9.072;2023-04-25T00:27:50;7.80;99.90
11748;DHT22;5931;48.832;9.072;2023-04-25T00:30:15;7.90;99.90
11748;DHT22;5931;48.832;9.072;2023-04-25T00:32:41;7.90;99.90
11748;DHT22;5931;48.832;9.072;2023-04-25T00:35:07;7.80;99.90
11748;DHT22;5931;48.832;9.072;2023-04-25T00:37:33;7.70;99.90
11748;DHT22;5931;48.832;9.072;2023-04-25T00:39:58;7.60;99.90
11748;DHT22;5931;48.832;9.072;2023-04-25T00:42:25;7.60;99.90
11748;DHT22;5931;48.832;9.072;2023-04-25T00:44:52;7.50;99.90
11748;DHT22;5931;48.832;9.072;2023-04-25T00:47:18;7.40;99.90
11748;DHT22;5931;48.832;9.072;2023-04-25T00:49:44;7.30;99.90
11748;DHT22;5931;48.832;9.072;2023-04-25T00:52:11;7.20;99.90
11748;DHT22;5931;48.832;9.072;2023-04-25T00:54:37;7.10;99.90
11748;DHT22;5931;48.832;9.072;2023-04-25T00:57:03;7.00;99.90
11748;DHT22;5931;48.832;9.072;2023-04-25T00:59:30;7.00;99.90
11748;DHT22;5931;48.832;9.072;2023-04-25T01:01:56;7.00;99.90
11748;DHT22;5931;48.832;9.072;2023-04-25T01:04:22;7.00;99.90
11748;DHT22;5931;48.832;9.072;2023-04-25T01:06:48;7.00;99.90
11748;DHT22;5931;48.832;9.072;2023-04-25T01:09:14;6.90;99.90
11748;DHT22;5931;48.832;9.072;2023-04-25T01:11:40;7.00;99.90
11748;DHT22;5931;48.832;9.072;2023-04-25T01:14:06;7.00;99.90
11748;DHT22;5931;48.832;9.072;2023-04-25T01:16:32;7.00;99.90
11748;DHT22;5931;48.832;9.072;2023-04-25T01:18:58;7.00;99.90
11748;DHT22;5931;48.832;9.072;2023-04-25T01:21:24;7.00;99.90
11748;DHT22;5931;48.832;9.072;2023-04-25T01:23:53;6.90;99.90
11748;DHT22;5931;48.832;9.072;2023-04-25T01:26:20;6.90;99.90
11748;DHT22;5931;48.832;9.072;2023-04-25T01:28:47;6.80;99.90
11748;DHT22;5931;48.832;9.072;2023-04-25T01:31:14;6.80;99.90
11748;DHT22;5931;48.832;9.072;2023-04-25T01:33:40;6.80;99.90
11748;DHT22;5931;48.832;9.072;2023-04-25T01:36:06;6.80;99.90
11748;DHT22;5931;48.832;9.072;2023-04-25T01:38:34;6.80;99.90
11748;DHT22;5931;48.832;9.072;2023-04-25T01:41:00;6.90;99.90
11748;DHT22;5931;48.832;9.072;2023-04-25T01:43:26;7.00;99.90
11748;DHT22;5931;48.832;9.072;2023-04-25T01:45:52;7.00;99.90
11748;DHT22;5931;48.832;9.072;2023-04-25T01:48:18;7.00;99.90
11748;DHT22;5931;48.832;9.072;2023-04-25T01:50:45;7.00;99.90
11748;DHT22;5931;48.832;9.072;2023-04-25T01:53:13;7.10;99.90
11748;DHT22;5931;48.832;9.072;2023-04-25T01:55:40;7.20;99.90
11748;DHT22;5931;48.832;9.072;2023-04-25T01:58:13;7.20;99.90
11748;DHT22;5931;48.832;9.072;2023-04-25T02:00:57;7.30;99.90
11748;DHT22;5931;48.832;9.072;2023-04-25T02:03:26;7.20;99.90
11748;DHT22;5931;48.832;9.072;2023-04-25T02:05:51;7.30;99.90
11748;DHT22;5931;48.832;9.072;2023-04-25T02:08:18;7.30;99.90
11748;DHT22;5931;48.832;9.072;2023-04-25T02:10:44;7.30;99.90
11748;DHT22;5931;48.832;9.072;2023-04-25T02:13:15;7.30;99.90
11748;DHT22;5931;48.832;9.072;2023-04-25T02:15:48;7.20;99.90
11748;DHT22;5931;48.832;9.072;2023-04-25T02:18:15;7.20;99.90
11748;DHT22;5931;48.832;9.072;2023-04-25T02:20:42;7.10;99.90
11748;DHT22;5931;48.832;9.072;2023-04-25T02:23:08;7.00;99.90
11748;DHT22;5931;48.832;9.072;2023-04-25T02:25:34;6.90;99.90
11748;DHT22;5931;48.832;9.072;2023-04-25T02:27:59;6.80;99.90
11748;DHT22;5931;48.832;9.072;2023-04-25T02:30:25;6.70;99.90
11748;DHT22;5931;48.832;9.072;2023-04-25T02:32:51;6.80;99.90
11748;DHT22;5931;48.832;9.072;2023-04-25T02:35:17;6.80;99.90
11748;DHT22;5931;48.832;9.072;2023-04-25T02:37:42;6.90;99.90
11748;DHT22;5931;48.832;9.072;2023-04-25T02:40:09;6.90;99.90
11748;DHT22;5931;48.832;9.072;2023-04-25T02:42:35;6.90;99.90
11748;DHT22;5931;48.832;9.072;2023-04-25T02:45:01;6.80;99.90
11748;DHT22;5931;48.832;9.072;2023-04-25T02:47:28;6.70;99.90
11748;DHT22;5931;48.832;9.072;2023-04-25T02:49:53;6.70;99.90
11748;DHT22;5931;48.832;9.072;2023-04-25T02:52:19;6.70;99.90
11748;DHT22;5931;48.832;9.072;2023-04-25T02:54:52;6.70;99.90
11748;DHT22;5931;48.832;9.072;2023-04-25T02:57:17;6.80;99.90
11748;DHT22;5931;48.832;9.072;2023-04-25T02:59:43;6.80;99.90
11748;DHT22;5931;48.832;9.072;2023-04-25T03:02:09;6.80;99.90
11748;DHT22;5931;48.832;9.072;2023-04-25T03:04:35;6.90;99.90
11748;DHT22;5931;48.832;9.072;2023-04-25T03:07:00;7.00;99.90
11748;DHT22;5931;48.832;9.072;2023-04-25T03:09:26;7.00;99.90
11748;DHT22;5931;48.832;9.072;2023-04-25T03:11:52;7.00;99.90
11748;DHT22;5931;48.832;9.072;2023-04-25T03:14:18;7.00;99.90
11748;DHT22;5931;48.832;9.072;2023-04-25T03:16:44;7.00;99.90
11748;DHT22;5931;48.832;9.072;2023-04-25T03:19:10;6.90;99.90
11748;DHT22;5931;48.832;9.072;2023-04-25T03:21:36;6.90;99.90
11748;DHT22;5931;48.832;9.072;2023-04-25T03:24:04;6.80;99.90
11748;DHT22;5931;48.832;9.072;2023-04-25T03:26:30;6.80;99.90
11748;DHT22;5931;48.832;9.072;2023-04-25T03:28:55;6.80;99.90
11748;DHT22;5931;48.832;9.072;2023-04-25T03:31:21;6.80;99.90
11748;DHT22;5931;48.832;9.072;2023-04-25T03:33:48;6.80;99.90
11748;DHT22;5931;48.832;9.072;2023-04-25T03:36:14;6.70;99.90
11748;DHT22;5931;48.832;9.072;2023-04-25T03:38:40;6.60;99.90
11748;DHT22;5931;48.832;9.072;2023-04-25T03:41:07;6.60;99.90
11748;DHT22;5931;48.832;9.072;2023-04-25T03:43:54;6.70;99.90
11748;DHT22;5931;48.832;9.072;2023-04-25T03:46:20;6.70;99.90
11748;DHT22;5931;48.832;9.072;2023-04-25T03:48:47;6.80;99.90
11748;DHT22;5931;48.832;9.072;2023-04-25T03:51:19;6.90;99.90
11748;DHT22;5931;48.832;9.072;2023-04-25T03:53:44;6.80;99.90
11748;DHT22;5931;48.832;9.072;2023-04-25T03:56:19;6.80;99.90
11748;DHT22;5931;48.832;9.072;2023-04-25T03:58:47;6.80;99.90
11748;DHT22;5931;48.832;9.072;2023-04-25T04:01:16;6.70;99.90
11748;DHT22;5931;48.832;9.072;2023-04-25T04:03:41;6.60;99.90
11748;DHT22;5931;48.832;9.072;2023-04-25T04:06:07;6.60;99.90
11748;DHT22;5931;48.832;9.072;2023-04-25T04:08:44;6.50;99.90
11748;DHT22;5931;48.832;9.072;2023-04-25T04:11:11;6.50;99.90
11748;DHT22;5931;48.832;9.072;2023-04-25T04:13:36;6.50;99.90
11748;DHT22;5931;48.832;9.072;2023-04-25T04:16:02;6.60;99.90
11748;DHT22;5931;48.832;9.072;2023-04-25T04:18:30;6.60;99.90
11748;DHT22;5931;48.832;9.072;2023-04-25T04:20:56;6.60;99.90
11748;DHT22;5931;48.832;9.072;2023-04-25T04:23:24;6.70;99.90
11748;DHT22;5931;48.832;9.072;2023-04-25T04:25:50;6.80;99.90
11748;DHT22;5931;48.832;9.072;2023-04-25T04:28:35;6.80;99.90
11748;DHT22;5931;48.832;9.072;2023-04-25T04:31:30;6.90;99.90
11748;DHT22;5931;48.832;9.072;2023-04-25T04:33:56;6.90;99.90
11748;DHT22;5931;48.832;9.072;2023-04-25T04:36:21;7.00;99.90
11748;DHT22;5931;48.832;9.072;2023-04-25T04:38:49;7.00;99.90
11748;DHT22;5931;48.832;9.072;2023-04-25T04:41:24;7.10;99.90
11748;DHT22;5931;48.832;9.072;2023-04-25T04:44:05;7.10;99.90
11748;DHT22;5931;48.832;9.072;2023-04-25T04:46:41;7.20;99.90
11748;DHT22;5931;48.832;9.072;2023-04-25T04:49:27;7.20;99.90
11748;DHT22;5931;48.832;9.072;2023-04-25T04:52:07;7.30;99.90
11748;DHT22;5931;48.832;9.072;2023-04-25T04:54:53;7.30;99.90
11748;DHT22;5931;48.832;9.072;2023-04-25T04:57:42;7.30;99.90
11748;DHT22;5931;48.832;9.072;2023-04-25T05:00:29;7.40;99.90
11748;DHT22;5931;48.832;9.072;2023-04-25T05:03:26;7.40;99.90
11748;DHT22;5931;48.832;9.072;2023-04-25T05:06:17;7.50;99.90
11748;DHT22;5931;48.832;9.072;2023-04-25T05:09:14;7.60;99.90
11748;DHT22;5931;48.832;9.072;2023-04-25T05:12:04;7.70;99.90
11748;DHT22;5931;48.832;9.072;2023-04-25T05:14:46;7.90;99.90
11748;DHT22;5931;48.832;9.072;2023-04-25T05:17:30;7.90;99.90
11748;DHT22;5931;48.832;9.072;2023-04-25T05:20:19;7.90;99.90
11748;DHT22;5931;48.832;9.072;2023-04-25T05:22:53;7.90;99.90
11748;DHT22;5931;48.832;9.072;2023-04-25T05:25:41;7.90;99.90
11748;DHT22;5931;48.832;9.072;2023-04-25T05:28:28;7.60;99.90
11748;DHT22;5931;48.832;9.072;2023-04-25T05:31:14;7.30;99.90
11748;DHT22;5931;48.832;9.072;2023-04-25T05:33:47;7.20;99.90
11748;DHT22;5931;48.832;9.072;2023-04-25T05:36:13;7.20;99.90
11748;DHT22;5931;48.832;9.072;2023-04-25T05:38:39;7.20;99.90
11748;DHT22;5931;48.832;9.072;2023-04-25T05:41:13;7.20;99.90
11748;DHT22;5931;48.832;9.072;2023-04-25T05:44:01;7.30;99.90
11748;DHT22;5931;48.832;9.072;2023-04-25T05:46:47;7.30;99.90
11748;DHT22;5931;48.832;9.072;2023-04-25T05:49:42;7.20;99.90
11748;DHT22;5931;48.832;9.072;2023-04-25T05:52:37;7.20;99.90
11748;DHT22;5931;48.832;9.072;2023-04-25T05:55:09;7.30;99.90
11748;DHT22;5931;48.832;9.072;2023-04-25T05:57:35;7.30;99.90
11748;DHT22;5931;48.832;9.072;2023-04-25T06:00:02;7.40;99.90
11748;DHT22;5931;48.832;9.072;2023-04-25T06:02:46;7.50;99.90
11748;DHT22;5931;48.832;9.072;2023-04-25T06:05:13;7.60;99.90
11748;DHT22;5931;48.832;9.072;2023-04-25T06:07:39;7.70;99.90
11748;DHT22;5931;48.832;9.072;2023-04-25T06:10:05;7.80;99.90
11748;DHT22;5931;48.832;9.072;2023-04-25T06:12:34;7.90;99.90
11748;DHT22;5931;48.832;9.072;2023-04-25T06:15:02;8.00;99.90
11748;DHT22;5931;48.832;9.072;2023-04-25T06:17:30;8.10;99.90
11748;DHT22;5931;48.832;9.072;2023-04-25T06:19:56;8.20;99.90
11748;DHT22;5931;48.832;9.072;2023-04-25T06:22:21;8.40;99.90
11748;DHT22;5931;48.832;9.072;2023-04-25T06:24:47;8.60;99.90
11748;DHT22;5931;48.832;9.072;2023-04-25T06:27:13;8.70;99.90
11748;DHT22;5931;48.832;9.072;2023-04-25T06:29:38;8.80;99.90
11748;DHT22;5931;48.832;9.072;2023-04-25T06:32:04;8.60;99.90
11748;DHT22;5931;48.832;9.072;2023-04-25T06:34:30;8.70;99.90
11748;DHT22;5931;48.832;9.072;2023-04-25T06:36:56;8.70;99.90
11748;DHT22;5931;48.832;9.072;2023-04-25T06:39:22;8.80;99.90
11748;DHT22;5931;48.832;9.072;2023-04-25T06:41:49;8.90;99.90
11748;DHT22;5931;48.832;9.072;2023-04-25T06:44:34;8.90;99.90
11748;DHT22;5931;48.832;9.072;2023-04-25T06:47:01;8.90;99.90
11748;DHT22;5931;48.832;9.072;2023-04-25T06:49:27;8.90;99.90
11748;DHT22;5931;48.832;9.072;2023-04-25T06:51:52;8.80;99.90
11748;DHT22;5931;48.832;9.072;2023-04-25T06:54:18;8.70;99.90
11748;DHT22;5931;48.832;9.072;2023-04-25T06:56:54;8.70;99.90
11748;DHT22;5931;48.832;9.072;2023-04-25T06:59:20;8.60;99.90
11748;DHT22;5931;48.832;9.072;2023-04-25T07:01:46;8.70;99.90
11748;DHT22;5931;48.832;9.072;2023-04-25T07:04:17;8.60;99.90
11748;DHT22;5931;48.832;9.072;2023-04-25T07:06:48;8.70;99.90
11748;DHT22;5931;48.832;9.072;2023-04-25T07:09:17;8.80;99.90
11748;DHT22;5931;48.832;9.072;2023-04-25T07:11:45;8.80;99.90
11748;DHT22;5931;48.832;9.072;2023-04-25T07:14:11;8.80;99.90
11748;DHT22;5931;48.832;9.072;2023-04-25T07:16:37;8.70;99.90
11748;DHT22;5931;48.832;9.072;2023-04-25T07:19:02;8.70;99.90
11748;DHT22;5931;48.832;9.072;2023-04-25T07:21:28;8.70;99.90
11748;DHT22;5931;48.832;9.072;2023-04-25T07:23:57;8.70;99.90
11748;DHT22;5931;48.832;9.072;2023-04-25T07:26:28;8.50;99.90
11748;DHT22;5931;48.832;9.072;2023-04-25T07:29:14;8.40;99.90
11748;DHT22;5931;48.832;9.072;2023-04-25T07:31:39;8.40;99.90
11748;DHT22;5931;48.832;9.072;2023-04-25T07:34:05;8.40;99.90
11748;DHT22;5931;48.832;9.072;2023-04-25T07:36:31;8.40;99.90
11748;DHT22;5931;48.832;9.072;2023-04-25T07:38:57;8.30;99.90
11748;DHT22;5931;48.832;9.072;2023-04-25T07:41:22;8.20;99.90
11748;DHT22;5931;48.832;9.072;2023-04-25T07:43:48;8.30;99.90
11748;DHT22;5931;48.832;9.072;2023-04-25T07:46:14;8.30;99.90
11748;DHT22;5931;48.832;9.072;2023-04-25T07:48:40;8.30;99.90
11748;DHT22;5931;48.832;9.072;2023-04-25T07:51:06;8.40;99.90
11748;DHT22;5931;48.832;9.072;2023-04-25T07:53:34;8.40;99.90
11748;DHT22;5931;48.832;9.072;2023-04-25T07:56:05;8.50;99.90
11748;DHT22;5931;48.832;9.072;2023-04-25T07:58:33;8.50;99.90
11748;DHT22;5931;48.832;9.072;2023-04-25T08:01:01;8.60;99.90
11748;DHT22;5931;48.832;9.072;2023-04-25T08:03:41;8.50;99.90
11748;DHT22;5931;48.832;9.072;2023-04-25T08:06:13;8.50;99.90
11748;DHT22;5931;48.832;9.072;2023-04-25T08:08:50;8.50;99.90
11748;DHT22;5931;48.832;9.072;2023-04-25T08:11:18;8.50;99.90
11748;DHT22;5931;48.832;9.072;2023-04-25T08:13:44;8.30;99.90
11748;DHT22;5931;48.832;9.072;2023-04-25T08:16:11;8.30;99.90
11748;DHT22;5931;48.832;9.072;2023-04-25T08:18:36;8.40;99.90
11748;DHT22;5931;48.832;9.072;2023-04-25T08:21:02;8.40;99.90
11748;DHT22;5931;48.832;9.072;2023-04-25T08:23:29;8.50;99.90
11748;DHT22;5931;48.832;9.072;2023-04-25T08:26:10;8.50;99.90
11748;DHT22;5931;48.832;9.072;2023-04-25T08:28:37;8.50;99.90
11748;DHT22;5931;48.832;9.072;2023-04-25T08:31:04;8.50;99.90
11748;DHT22;5931;48.832;9.072;2023-04-25T08:33:37;8.40;99.90
11748;DHT22;5931;48.832;9.072;2023-04-25T08:36:13;8.40;99.90
11748;DHT22;5931;48.832;9.072;2023-04-25T08:38:38;8.40;99.90
11748;DHT22;5931;48.832;9.072;2023-04-25T08:41:07;8.30;99.90
11748;DHT22;5931;48.832;9.072;2023-04-25T08:43:34;8.30;99.90
11748;DHT22;5931;48.832;9.072;2023-04-25T08:46:00;8.40;99.90
11748;DHT22;5931;48.832;9.072;2023-04-25T08:48:40;8.50;99.90
11748;DHT22;5931;48.832;9.072;2023-04-25T08:51:07;8.50;99.90
11748;DHT22;5931;48.832;9.072;2023-04-25T08:53:34;8.60;99.90
11748;DHT22;5931;48.832;9.072;2023-04-25T08:56:02;8.70;99.90
11748;DHT22;5931;48.832;9.072;2023-04-25T08:58:28;8.70;99.90
11748;DHT22;5931;48.832;9.072;2023-04-25T09:00:55;8.80;99.90
11748;DHT22;5931;48.832;9.072;2023-04-25T09:03:23;8.80;99.90
11748;DHT22;5931;48.832;9.072;2023-04-25T09:05:51;8.70;99.90
11748;DHT22;5931;48.832;9.072;2023-04-25T09:08:16;8.80;99.90
11748;DHT22;5931;48.832;9.072;2023-04-25T09:10:42;9.00;99.90
11748;DHT22;5931;48.832;9.072;2023-04-25T09:13:10;9.10;99.90
11748;DHT22;5931;48.832;9.072;2023-04-25T09:15:58;9.20;99.90
11748;DHT22;5931;48.832;9.072;2023-04-25T09:18:36;9.20;99.90
11748;DHT22;5931;48.832;9.072;2023-04-25T09:21:10;9.40;99.90
11748;DHT22;5931;48.832;9.072;2023-04-25T09:23:49;9.30;99.90
11748;DHT22;5931;48.832;9.072;2023-04-25T09:26:18;9.50;99.90
11748;DHT22;5931;48.832;9.072;2023-04-25T09:28:45;9.60;99.90
11748;DHT22;5931;48.832;9.072;2023-04-25T09:31:24;9.50;99.90
11748;DHT22;5931;48.832;9.072;2023-04-25T09:34:01;9.40;99.90
11748;DHT22;5931;48.832;9.072;2023-04-25T09:36:30;9.40;99.90
11748;DHT22;5931;48.832;9.072;2023-04-25T09:39:16;9.40;99.90
11748;DHT22;5931;48.832;9.072;2023-04-25T09:41:53;9.40;99.90
11748;DHT22;5931;48.832;9.072;2023-04-25T09:44:23;9.30;99.90
11748;DHT22;5931;48.832;9.072;2023-04-25T09:46:50;9.20;99.90
11748;DHT22;5931;48.832;9.072;2023-04-25T09:49:20;9.00;99.90
11748;DHT22;5931;48.832;9.072;2023-04-25T09:51:57;8.90;99.90
11748;DHT22;5931;48.832;9.072;2023-04-25T09:54:26;9.00;99.90
11748;DHT22;5931;48.832;9.072;2023-04-25T09:57:24;8.90;99.90
11748;DHT22;5931;48.832;9.072;2023-04-25T09:59:55;8.50;99.90
11748;DHT22;5931;48.832;9.072;2023-04-25T10:02:24;8.40;99.90
11748;DHT22;5931;48.832;9.072;2023-04-25T10:04:54;8.40;99.90
11748;DHT22;5931;48.832;9.072;2023-04-25T10:07:26;8.40;99.90
11748;DHT22;5931;48.832;9.072;2023-04-25T10:10:04;8.30;99.90
11748;DHT22;5931;48.832;9.072;2023-04-25T10:12:32;8.20;99.90
11748;DHT22;5931;48.832;9.072;2023-04-25T10:14:58;8.20;99.90
11748;DHT22;5931;48.832;9.072;2023-04-25T10:17:26;8.20;99.90
11748;DHT22;5931;48.832;9.072;2023-04-25T10:19:55;8.10;99.90
11748;DHT22;5931;48.832;9.072;2023-04-25T10:22:41;8.10;99.90
11748;DHT22;5931;48.832;9.072;2023-04-25T10:25:08;8.10;99.90
11748;DHT22;5931;48.832;9.072;2023-04-25T10:27:34;7.80;99.90
11748;DHT22;5931;48.832;9.072;2023-04-25T10:30:06;7.40;99.90
11748;DHT22;5931;48.832;9.072;2023-04-25T10:32:35;7.10;99.90
11748;DHT22;5931;48.832;9.072;2023-04-25T10:35:17;7.00;99.90
11748;DHT22;5931;48.832;9.072;2023-04-25T10:40:26;6.80;99.90
11748;DHT22;5931;48.832;9.072;2023-04-25T10:42:55;6.80;99.90
11748;DHT22;5931;48.832;9.072;2023-04-25T10:45:22;6.90;99.90
11748;DHT22;5931;48.832;9.072;2023-04-25T10:47:47;7.00;99.90
11748;DHT22;5931;48.832;9.072;2023-04-25T10:50:17;7.00;99.90
11748;DHT22;5931;48.832;9.072;2023-04-25T10:52:42;7.10;99.90
11748;DHT22;5931;48.832;9.072;2023-04-25T10:55:09;7.10;99.90
11748;DHT22;5931;48.832;9.072;2023-04-25T10:57:42;7.20;99.90
11748;DHT22;5931;48.832;9.072;2023-04-25T11:00:11;7.20;99.90
11748;DHT22;5931;48.832;9.072;2023-04-25T11:02:41;7.00;99.90
11748;DHT22;5931;48.832;9.072;2023-04-25T11:05:09;6.90;99.90
11748;DHT22;5931;48.832;9.072;2023-04-25T11:07:54;7.00;99.90
11748;DHT22;5931;48.832;9.072;2023-04-25T11:10:30;7.40;99.90
11748;DHT22;5931;48.832;9.072;2023-04-25T11:12:57;7.60;99.90
11748;DHT22;5931;48.832;9.072;2023-04-25T11:15:23;7.60;99.90
11748;DHT22;5931;48.832;9.072;2023-04-25T11:17:51;7.50;99.90
11748;DHT22;5931;48.832;9.072;2023-04-25T11:20:17;7.50;99.90
11748;DHT22;5931;48.832;9.072;2023-04-25T11:22:45;7.60;99.90
11748;DHT22;5931;48.832;9.072;2023-04-25T11:25:12;7.60;99.90
11748;DHT22;5931;48.832;9.072;2023-04-25T11:27:58;7.70;99.90
11748;DHT22;5931;48.832;9.072;2023-04-25T11:30:25;7.80;99.90
11748;DHT22;5931;48.832;9.072;2023-04-25T11:32:51;7.90;99.90
11748;DHT22;5931;48.832;9.072;2023-04-25T11:35:18;7.90;99.90
11748;DHT22;5931;48.832;9.072;2023-04-25T11:37:44;8.10;99.90
11748;DHT22;5931;48.832;9.072;2023-04-25T11:40:11;8.10;99.90
11748;DHT22;5931;48.832;9.072;2023-04-25T11:42:47;8.20;99.90
11748;DHT22;5931;48.832;9.072;2023-04-25T11:45:13;8.40;99.90
11748;DHT22;5931;48.832;9.072;2023-04-25T11:47:39;8.40;99.90
11748;DHT22;5931;48.832;9.072;2023-04-25T11:50:06;8.40;99.90
11748;DHT22;5931;48.832;9.072;2023-04-25T11:52:44;8.30;99.90
11748;DHT22;5931;48.832;9.072;2023-04-25T11:55:13;8.40;99.90
11748;DHT22;5931;48.832;9.072;2023-04-25T11:57:39;8.30;99.90
11748;DHT22;5931;48.832;9.072;2023-04-25T12:00:13;8.10;99.90
11748;DHT22;5931;48.832;9.072;2023-04-25T12:02:46;8.00;99.90
11748;DHT22;5931;48.832;9.072;2023-04-25T12:05:14;8.00;99.90
11748;DHT22;5931;48.832;9.072;2023-04-25T12:07:43;8.00;99.90
11748;DHT22;5931;48.832;9.072;2023-04-25T12:10:11;8.10;99.90
11748;DHT22;5931;48.832;9.072;2023-04-25T12:12:41;8.10;99.90
11748;DHT22;5931;48.832;9.072;2023-04-25T12:15:15;8.30;99.90
11748;DHT22;5931;48.832;9.072;2023-04-25T12:17:45;8.60;99.90
11748;DHT22;5931;48.832;9.072;2023-04-25T12:20:16;9.00;99.90
11748;DHT22;5931;48.832;9.072;2023-04-25T12:22:44;9.30;99.90
11748;DHT22;5931;48.832;9.072;2023-04-25T12:25:41;9.90;99.90
11748;DHT22;5931;48.832;9.072;2023-04-25T12:28:20;10.40;99.90
11748;DHT22;5931;48.832;9.072;2023-04-25T12:31:01;10.60;99.90
11748;DHT22;5931;48.832;9.072;2023-04-25T12:33:40;10.70;99.90
11748;DHT22;5931;48.832;9.072;2023-04-25T12:36:06;10.70;99.90
11748;DHT22;5931;48.832;9.072;2023-04-25T12:38:41;11.00;99.90
11748;DHT22;5931;48.832;9.072;2023-04-25T12:41:08;11.30;99.90
11748;DHT22;5931;48.832;9.072;2023-04-25T12:43:34;11.10;99.90
11748;DHT22;5931;48.832;9.072;2023-04-25T12:46:00;10.80;99.90
11748;DHT22;5931;48.832;9.072;2023-04-25T12:48:26;10.70;99.90
11748;DHT22;5931;48.832;9.072;2023-04-25T12:50:52;10.50;99.90
11748;DHT22;5931;48.832;9.072;2023-04-25T12:53:20;10.60;99.90
11748;DHT22;5931;48.832;9.072;2023-04-25T12:55:46;10.80;99.90
11748;DHT22;5931;48.832;9.072;2023-04-25T12:58:16;11.00;99.90
11748;DHT22;5931;48.832;9.072;2023-04-25T13:00:42;11.00;99.90
11748;DHT22;5931;48.832;9.072;2023-04-25T13:03:09;11.70;99.90
11748;DHT22;5931;48.832;9.072;2023-04-25T13:05:36;12.40;99.90
11748;DHT22;5931;48.832;9.072;2023-04-25T13:08:02;12.70;99.90
11748;DHT22;5931;48.832;9.072;2023-04-25T13:10:27;12.30;99.90
11748;DHT22;5931;48.832;9.072;2023-04-25T13:12:53;12.00;99.90
11748;DHT22;5931;48.832;9.072;2023-04-25T13:15:19;11.90;99.90
11748;DHT22;5931;48.832;9.072;2023-04-25T13:17:45;11.60;99.90
11748;DHT22;5931;48.832;9.072;2023-04-25T13:20:10;11.20;99.90
11748;DHT22;5931;48.832;9.072;2023-04-25T13:22:40;11.10;99.90
11748;DHT22;5931;48.832;9.072;2023-04-25T13:25:07;10.80;99.90
11748;DHT22;5931;48.832;9.072;2023-04-25T13:27:34;10.70;99.90
11748;DHT22;5931;48.832;9.072;2023-04-25T13:30:01;10.90;99.90
11748;DHT22;5931;48.832;9.072;2023-04-25T13:32:30;11.10;99.90
11748;DHT22;5931;48.832;9.072;2023-04-25T13:34:55;11.50;99.90
11748;DHT22;5931;48.832;9.072;2023-04-25T13:37:21;11.30;99.90
11748;DHT22;5931;48.832;9.072;2023-04-25T13:39:49;11.40;99.90
11748;DHT22;5931;48.832;9.072;2023-04-25T13:42:15;11.90;99.90
11748;DHT22;5931;48.832;9.072;2023-04-25T13:44:41;12.20;99.90
11748;DHT22;5931;48.832;9.072;2023-04-25T13:47:07;11.90;99.90
11748;DHT22;5931;48.832;9.072;2023-04-25T13:49:32;11.80;99.90
11748;DHT22;5931;48.832;9.072;2023-04-25T13:51:58;11.30;99.90
11748;DHT22;5931;48.832;9.072;2023-04-25T13:54:23;11.50;99.90
11748;DHT22;5931;48.832;9.072;2023-04-25T13:56:49;12.10;99.90
11748;DHT22;5931;48.832;9.072;2023-04-25T13:59:15;12.00;99.90
11748;DHT22;5931;48.832;9.072;2023-04-25T14:01:41;11.80;99.90
11748;DHT22;5931;48.832;9.072;2023-04-25T14:04:07;12.10;99.90
11748;DHT22;5931;48.832;9.072;2023-04-25T14:06:32;12.50;99.90
11748;DHT22;5931;48.832;9.072;2023-04-25T14:08:58;12.30;99.90
11748;DHT22;5931;48.832;9.072;2023-04-25T14:11:26;12.50;99.90
11748;DHT22;5931;48.832;9.072;2023-04-25T14:13:52;12.40;99.90
11748;DHT22;5931;48.832;9.072;2023-04-25T14:16:17;12.70;99.90
11748;DHT22;5931;48.832;9.072;2023-04-25T14:18:43;12.40;99.90
11748;DHT22;5931;48.832;9.072;2023-04-25T14:21:09;12.50;99.90
11748;DHT22;5931;48.832;9.072;2023-04-25T14:23:35;12.90;99.90
11748;DHT22;5931;48.832;9.072;2023-04-25T14:26:01;13.10;99.90
11748;DHT22;5931;48.832;9.072;2023-04-25T14:28:27;13.00;99.90
11748;DHT22;5931;48.832;9.072;2023-04-25T14:30:52;12.40;99.90
11748;DHT22;5931;48.832;9.072;2023-04-25T14:33:18;12.80;99.90
11748;DHT22;5931;48.832;9.072;2023-04-25T14:35:44;12.90;99.90
11748;DHT22;5931;48.832;9.072;2023-04-25T14:38:09;13.40;99.90
11748;DHT22;5931;48.832;9.072;2023-04-25T14:40:35;13.40;99.90
11748;DHT22;5931;48.832;9.072;2023-04-25T14:43:01;12.70;99.90
11748;DHT22;5931;48.832;9.072;2023-04-25T14:45:26;12.10;99.90
11748;DHT22;5931;48.832;9.072;2023-04-25T14:47:52;12.30;99.90
11748;DHT22;5931;48.832;9.072;2023-04-25T14:50:18;13.10;99.90
11748;DHT22;5931;48.832;9.072;2023-04-25T14:52:43;14.60;99.90
11748;DHT22;5931;48.832;9.072;2023-04-25T14:55:10;14.90;99.90
11748;DHT22;5931;48.832;9.072;2023-04-25T14:57:36;16.30;99.90
11748;DHT22;5931;48.832;9.072;2023-04-25T15:00:03;17.00;99.90
11748;DHT22;5931;48.832;9.072;2023-04-25T15:02:30;16.10;99.90
11748;DHT22;5931;48.832;9.072;2023-04-25T15:04:56;14.50;99.90
11748;DHT22;5931;48.832;9.072;2023-04-25T15:07:22;14.10;99.90
11748;DHT22;5931;48.832;9.072;2023-04-25T15:09:48;13.80;99.90
11748;DHT22;5931;48.832;9.072;2023-04-25T15:12:14;15.10;99.90
11748;DHT22;5931;48.832;9.072;2023-04-25T15:14:40;15.50;99.90
11748;DHT22;5931;48.832;9.072;2023-04-25T15:17:05;16.30;99.90
11748;DHT22;5931;48.832;9.072;2023-04-25T15:19:32;17.20;99.90
11748;DHT22;5931;48.832;9.072;2023-04-25T15:21:58;16.60;99.90
11748;DHT22;5931;48.832;9.072;2023-04-25T15:24:26;15.30;99.90
11748;DHT22;5931;48.832;9.072;2023-04-25T15:26:52;13.90;99.90
11748;DHT22;5931;48.832;9.072;2023-04-25T15:29:18;12.90;99.90
11748;DHT22;5931;48.832;9.072;2023-04-25T15:31:44;12.50;99.90
11748;DHT22;5931;48.832;9.072;2023-04-25T15:34:10;12.10;99.90
11748;DHT22;5931;48.832;9.072;2023-04-25T15:36:36;12.00;99.90
11748;DHT22;5931;48.832;9.072;2023-04-25T15:39:02;11.60;99.90
11748;DHT22;5931;48.832;9.072;2023-04-25T15:41:28;11.40;99.90
11748;DHT22;5931;48.832;9.072;2023-04-25T15:43:54;11.50;99.90
11748;DHT22;5931;48.832;9.072;2023-04-25T15:46:19;11.40;99.90
11748;DHT22;5931;48.832;9.072;2023-04-25T15:48:47;11.70;99.90
11748;DHT22;5931;48.832;9.072;2023-04-25T15:51:13;12.20;99.90
11748;DHT22;5931;48.832;9.072;2023-04-25T15:53:39;12.50;99.90
11748;DHT22;5931;48.832;9.072;2023-04-25T15:56:05;12.40;99.90
11748;DHT22;5931;48.832;9.072;2023-04-25T15:58:31;12.10;99.90
11748;DHT22;5931;48.832;9.072;2023-04-25T16:00:56;12.00;99.90
11748;DHT22;5931;48.832;9.072;2023-04-25T16:03:23;11.70;99.90
11748;DHT22;5931;48.832;9.072;2023-04-25T16:05:49;11.70;99.90
11748;DHT22;5931;48.832;9.072;2023-04-25T16:08:15;11.50;99.90
11748;DHT22;5931;48.832;9.072;2023-04-25T16:10:41;11.60;99.90
11748;DHT22;5931;48.832;9.072;2023-04-25T16:13:07;11.60;99.90